createdAt,value
2022-08-21T00:00:32.406Z,51.8
2022-08-21T00:06:20.525Z,51.7
2022-08-21T00:11:42.527Z,51.6
2022-08-21T00:17:13.750Z,51.6
2022-08-21T00:22:50.893Z,51.6
2022-08-21T00:28:16.630Z,51.6
2022-08-21T00:34:04.105Z,51.6
2022-08-21T00:39:41.048Z,51.5
2022-08-21T00:45:44.851Z,51.4
2022-08-21T00:51:26.812Z,51.4
2022-08-21T00:57:17.128Z,51.4
2022-08-21T01:02:58.901Z,51.4
2022-08-21T01:08:36.901Z,51.3
2022-08-21T01:14:21.223Z,51.3
2022-08-21T01:19:41.394Z,51.3
2022-08-21T01:25:25.637Z,51.3
2022-08-21T01:31:05.695Z,51.2
2022-08-21T01:36:47.123Z,51.2
2022-08-21T01:42:25.138Z,51.1
2022-08-21T01:48:10.352Z,51.1
2022-08-21T01:53:33.749Z,51.1
2022-08-21T01:58:50.231Z,51.1
2022-08-21T02:04:41.287Z,51
2022-08-21T02:10:22.691Z,51
2022-08-21T02:15:55.912Z,50.9
2022-08-21T02:22:02.425Z,50.9
2022-08-21T02:27:45.348Z,50.9
2022-08-21T02:33:06.109Z,50.9
2022-08-21T02:38:46.116Z,50.8
2022-08-21T02:44:17.044Z,50.8
2022-08-21T02:49:54.974Z,50.8
2022-08-21T02:55:31.544Z,50.7
2022-08-21T03:01:07.448Z,50.7
2022-08-21T03:06:29.165Z,50.7
2022-08-21T03:11:59.565Z,50.6
2022-08-21T03:17:46.548Z,50.6
2022-08-21T03:23:32.495Z,50.6
2022-08-21T03:29:15.253Z,50.5
2022-08-21T03:34:54.880Z,50.5
2022-08-21T03:40:16.028Z,50.4
2022-08-21T03:45:52.769Z,50.4
2022-08-21T03:51:14.183Z,50.4
2022-08-21T03:56:41.869Z,50.3
2022-08-21T04:01:58.641Z,50.3
2022-08-21T04:07:43.337Z,50.3
2022-08-21T04:13:19.522Z,50.3
2022-08-21T04:19:03.149Z,50.3
2022-08-21T04:25:03.275Z,50.2
2022-08-21T04:30:45.868Z,50.1
2022-08-21T04:36:22.817Z,50.1
2022-08-21T04:42:17.136Z,50.1
2022-08-21T04:48:13.432Z,50
2022-08-21T04:53:51.460Z,50
2022-08-21T04:59:49.196Z,49.9
2022-08-21T05:04:55.781Z,49.9
2022-08-21T05:10:19.237Z,49.9
2022-08-21T05:15:47.140Z,49.9
2022-08-21T05:21:51.032Z,49.8
2022-08-21T05:27:37.349Z,49.8
2022-08-21T05:33:21.342Z,49.8
2022-08-21T05:39:08.251Z,49.8
2022-08-21T05:45:58.687Z,49.7
2022-08-21T05:51:39.605Z,49.7
2022-08-21T05:57:25.469Z,49.6
2022-08-21T06:03:11.249Z,49.6
2022-08-21T06:09:01.993Z,49.6
2022-08-21T06:14:42.208Z,49.6
2022-08-21T06:20:24.032Z,49.5
2022-08-21T06:26:07.549Z,49.5
2022-08-21T06:31:46.117Z,49.4
2022-08-21T06:37:30.012Z,49.4
2022-08-21T06:43:54.325Z,49.4
2022-08-21T06:49:17.590Z,49.3
2022-08-21T06:54:58.527Z,49.3
2022-08-21T07:00:43.242Z,49.3
2022-08-21T07:06:23.639Z,49.3
2022-08-21T07:12:04.180Z,49.2
2022-08-21T07:17:48.963Z,49.2
2022-08-21T07:23:27.334Z,49.1
2022-08-21T07:29:09.519Z,49.1
2022-08-21T07:34:47.890Z,49.1
2022-08-21T07:40:35.270Z,49.1
2022-08-21T07:46:19.830Z,49
2022-08-21T07:52:13.715Z,49
2022-08-21T07:58:00.627Z,48.9
2022-08-21T08:03:45.516Z,48.9
2022-08-21T08:09:21.989Z,48.9
2022-08-21T08:15:04.724Z,48.9
2022-08-21T08:20:42.098Z,48.9
2022-08-21T08:26:42.510Z,49.1
2022-08-21T08:32:33.685Z,49.4
2022-08-21T08:38:31.116Z,49.9
2022-08-21T08:44:53.960Z,50.4
2022-08-21T08:50:32.940Z,50.9
2022-08-21T08:56:00.347Z,51.3
2022-08-21T09:01:42.914Z,51.3
2022-08-21T09:07:19.932Z,51.6
2022-08-21T09:18:24.107Z,52.3
2022-08-21T09:24:03.489Z,52.7
2022-08-21T09:29:39.915Z,53.1
2022-08-21T09:35:28.272Z,53.4
2022-08-21T09:40:56.130Z,53.7
2022-08-21T09:46:32.466Z,53.8
2022-08-21T09:52:21.863Z,54
2022-08-21T09:58:06.950Z,54.3
2022-08-21T10:03:51.637Z,54.3
2022-08-21T10:09:37.964Z,54.4
2022-08-21T10:15:18.926Z,54.3
2022-08-21T10:20:55.135Z,54.3
2022-08-21T10:27:19.115Z,54.3
2022-08-21T10:33:15.700Z,54.8
2022-08-21T10:39:42.354Z,55
2022-08-21T10:45:09.756Z,55.4
2022-08-21T10:50:48.474Z,55.7
2022-08-21T10:56:36.990Z,56.1
2022-08-21T11:02:20.373Z,56.4
2022-08-21T11:07:52.200Z,56.8
2022-08-21T11:14:15.369Z,57.2
2022-08-21T11:25:33.405Z,58.1
2022-08-21T11:36:46.641Z,58.9
2022-08-21T11:42:25.842Z,59.3
2022-08-21T11:48:08.530Z,59.6
2022-08-21T11:53:59.768Z,59.9
2022-08-21T11:59:23.323Z,60.2
2022-08-21T12:05:09.187Z,60.3
2022-08-21T12:10:54.934Z,60.2
2022-08-21T12:16:47.338Z,60.1
2022-08-21T12:22:29.987Z,60.1
2022-08-21T12:28:19.472Z,60.1
2022-08-21T12:33:56.206Z,60.1
2022-08-21T12:39:44.705Z,60.1
2022-08-21T12:45:33.200Z,60
2022-08-21T12:51:03.218Z,60
2022-08-21T12:56:27.382Z,60
2022-08-21T13:02:05.766Z,59.9
2022-08-21T13:07:51.939Z,59.9
2022-08-21T13:14:07.583Z,59.8
2022-08-21T13:20:03.340Z,59.8
2022-08-21T13:26:25.803Z,59.8
2022-08-21T13:32:11.075Z,59.8
2022-08-21T13:37:53.023Z,59.7
2022-08-21T13:43:37.741Z,59.7
2022-08-21T13:49:15.746Z,59.6
2022-08-21T13:54:38.686Z,59.6
2022-08-21T14:00:15.871Z,59.6
2022-08-21T14:06:00.301Z,59.5
2022-08-21T14:11:43.247Z,59.4
2022-08-21T14:17:41.654Z,59.4
2022-08-21T14:23:20.517Z,59.4
2022-08-21T14:29:01.148Z,59.4
2022-08-21T14:35:10.876Z,59.3
2022-08-21T14:40:51.038Z,59.3
2022-08-21T14:46:29.550Z,59.3
2022-08-21T14:52:27.162Z,59.2
2022-08-21T14:58:12.187Z,59.1
2022-08-21T15:04:01.440Z,59.1
2022-08-21T15:09:46.937Z,59.1
2022-08-21T15:15:56.495Z,59
2022-08-21T15:21:33.951Z,58.9
2022-08-21T15:27:28.859Z,58.9
2022-08-21T15:33:14.427Z,58.9
2022-08-21T15:39:00.701Z,58.9
2022-08-21T15:44:53.263Z,58.8
2022-08-21T15:50:30.234Z,58.8
2022-08-21T15:56:14.721Z,58.7
2022-08-21T16:02:01.120Z,58.6
2022-08-21T16:08:00.059Z,58.6
2022-08-21T16:13:39.592Z,58.6
2022-08-21T16:24:57.214Z,58.5
2022-08-21T16:30:49.899Z,58.4
2022-08-21T16:36:34.137Z,58.4
2022-08-21T16:42:13.995Z,58.4
2022-08-21T16:48:00.250Z,58.3
2022-08-21T16:53:41.443Z,58.3
2022-08-21T16:59:22.260Z,58.3
2022-08-21T17:05:01.927Z,58.3
2022-08-21T17:10:45.535Z,58.2
2022-08-21T17:16:45.294Z,58.1
2022-08-21T17:22:24.541Z,58.1
2022-08-21T17:28:01.718Z,58.1
2022-08-21T17:33:47.059Z,58.1
2022-08-21T17:39:26.947Z,57.9
2022-08-21T17:45:08.297Z,57.9
2022-08-21T17:50:55.894Z,57.9
2022-08-21T17:56:32.575Z,57.9
2022-08-21T18:02:19.456Z,57.8
2022-08-21T18:08:05.911Z,57.8
2022-08-21T18:19:11.486Z,57.7
2022-08-21T18:25:07.688Z,57.7
2022-08-21T18:30:53.565Z,57.6
2022-08-21T18:36:39.236Z,57.6
2022-08-21T18:42:53.076Z,57.6
2022-08-21T18:48:45.685Z,57.5
